sensor_id;sensor_type;location;lat;lon;timestamp;P1;durP1;ratioP1;P2;durP2;ratioP2
37203;SDS011;23098;48.054;10.636;2023-12-28T00:00:33;7.47;;;2.97;;
37203;SDS011;23098;48.054;10.636;2023-12-28T00:02:58;6.07;;;3.33;;
37203;SDS011;23098;48.054;10.636;2023-12-28T00:05:24;4.72;;;2.50;;
37203;SDS011;23098;48.054;10.636;2023-12-28T00:07:49;5.10;;;2.70;;
37203;SDS011;23098;48.054;10.636;2023-12-28T00:10:21;6.10;;;3.13;;
37203;SDS011;23098;48.054;10.636;2023-12-28T00:12:48;6.90;;;3.20;;
37203;SDS011;23098;48.054;10.636;2023-12-28T00:15:13;7.72;;;2.95;;
37203;SDS011;23098;48.054;10.636;2023-12-28T00:17:39;3.58;;;1.92;;
37203;SDS011;23098;48.054;10.636;2023-12-28T00:20:04;4.18;;;1.55;;
37203;SDS011;23098;48.054;10.636;2023-12-28T00:22:30;2.22;;;1.23;;
37203;SDS011;23098;48.054;10.636;2023-12-28T00:24:56;3.47;;;1.20;;
37203;SDS011;23098;48.054;10.636;2023-12-28T00:27:21;2.28;;;1.42;;
37203;SDS011;23098;48.054;10.636;2023-12-28T00:29:47;2.70;;;1.20;;
37203;SDS011;23098;48.054;10.636;2023-12-28T00:32:13;1.73;;;1.00;;
37203;SDS011;23098;48.054;10.636;2023-12-28T00:34:38;1.88;;;1.20;;
37203;SDS011;23098;48.054;10.636;2023-12-28T00:37:04;4.07;;;0.88;;
37203;SDS011;23098;48.054;10.636;2023-12-28T00:39:30;1.10;;;1.00;;
37203;SDS011;23098;48.054;10.636;2023-12-28T00:41:55;2.55;;;1.20;;
37203;SDS011;23098;48.054;10.636;2023-12-28T00:44:21;2.42;;;1.30;;
37203;SDS011;23098;48.054;10.636;2023-12-28T00:46:46;2.95;;;1.20;;
37203;SDS011;23098;48.054;10.636;2023-12-28T00:49:12;1.38;;;1.00;;
37203;SDS011;23098;48.054;10.636;2023-12-28T00:51:37;2.55;;;1.05;;
37203;SDS011;23098;48.054;10.636;2023-12-28T00:54:03;4.10;;;1.20;;
37203;SDS011;23098;48.054;10.636;2023-12-28T00:56:28;2.00;;;1.20;;
37203;SDS011;23098;48.054;10.636;2023-12-28T00:58:54;1.67;;;1.20;;
37203;SDS011;23098;48.054;10.636;2023-12-28T01:01:20;1.60;;;1.13;;
37203;SDS011;23098;48.054;10.636;2023-12-28T01:03:45;2.20;;;1.30;;
37203;SDS011;23098;48.054;10.636;2023-12-28T01:06:11;2.22;;;1.30;;
37203;SDS011;23098;48.054;10.636;2023-12-28T01:08:36;1.95;;;1.38;;
37203;SDS011;23098;48.054;10.636;2023-12-28T01:11:02;2.38;;;1.42;;
37203;SDS011;23098;48.054;10.636;2023-12-28T01:13:28;1.73;;;1.10;;
37203;SDS011;23098;48.054;10.636;2023-12-28T01:15:54;2.05;;;1.05;;
37203;SDS011;23098;48.054;10.636;2023-12-28T01:18:19;1.88;;;1.20;;
37203;SDS011;23098;48.054;10.636;2023-12-28T01:20:45;2.25;;;1.25;;
37203;SDS011;23098;48.054;10.636;2023-12-28T01:23:11;1.38;;;1.02;;
37203;SDS011;23098;48.054;10.636;2023-12-28T01:25:36;1.92;;;1.08;;
37203;SDS011;23098;48.054;10.636;2023-12-28T01:28:02;1.23;;;1.10;;
37203;SDS011;23098;48.054;10.636;2023-12-28T01:30:28;1.30;;;0.90;;
37203;SDS011;23098;48.054;10.636;2023-12-28T01:32:53;1.90;;;1.17;;
37203;SDS011;23098;48.054;10.636;2023-12-28T01:35:19;2.33;;;1.30;;
37203;SDS011;23098;48.054;10.636;2023-12-28T01:37:44;1.27;;;0.88;;
37203;SDS011;23098;48.054;10.636;2023-12-28T01:40:10;2.03;;;1.00;;
37203;SDS011;23098;48.054;10.636;2023-12-28T01:42:36;1.90;;;1.00;;
37203;SDS011;23098;48.054;10.636;2023-12-28T01:45:03;1.73;;;1.10;;
37203;SDS011;23098;48.054;10.636;2023-12-28T01:47:28;2.00;;;1.20;;
37203;SDS011;23098;48.054;10.636;2023-12-28T01:49:54;1.50;;;1.02;;
37203;SDS011;23098;48.054;10.636;2023-12-28T01:52:21;1.48;;;1.00;;
37203;SDS011;23098;48.054;10.636;2023-12-28T01:54:47;1.05;;;0.90;;
37203;SDS011;23098;48.054;10.636;2023-12-28T01:57:13;0.90;;;0.70;;
37203;SDS011;23098;48.054;10.636;2023-12-28T01:59:40;1.10;;;0.90;;
37203;SDS011;23098;48.054;10.636;2023-12-28T02:02:06;1.75;;;0.95;;
37203;SDS011;23098;48.054;10.636;2023-12-28T02:04:32;1.42;;;0.90;;
37203;SDS011;23098;48.054;10.636;2023-12-28T02:06:59;0.95;;;0.75;;
37203;SDS011;23098;48.054;10.636;2023-12-28T02:09:26;2.78;;;1.10;;
37203;SDS011;23098;48.054;10.636;2023-12-28T02:11:51;1.63;;;0.90;;
37203;SDS011;23098;48.054;10.636;2023-12-28T02:14:18;1.73;;;0.95;;
37203;SDS011;23098;48.054;10.636;2023-12-28T02:17:10;1.65;;;0.95;;
37203;SDS011;23098;48.054;10.636;2023-12-28T02:24:32;1.33;;;0.70;;
37203;SDS011;23098;48.054;10.636;2023-12-28T02:27:14;2.72;;;0.90;;
37203;SDS011;23098;48.054;10.636;2023-12-28T02:29:39;0.73;;;0.60;;
37203;SDS011;23098;48.054;10.636;2023-12-28T02:32:05;1.20;;;0.70;;
37203;SDS011;23098;48.054;10.636;2023-12-28T02:34:36;2.35;;;0.90;;
37203;SDS011;23098;48.054;10.636;2023-12-28T02:37:05;1.50;;;1.00;;
37203;SDS011;23098;48.054;10.636;2023-12-28T02:39:31;0.90;;;0.68;;
37203;SDS011;23098;48.054;10.636;2023-12-28T02:41:58;0.70;;;0.70;;
37203;SDS011;23098;48.054;10.636;2023-12-28T02:44:23;2.20;;;1.10;;
37203;SDS011;23098;48.054;10.636;2023-12-28T02:46:49;1.33;;;0.85;;
37203;SDS011;23098;48.054;10.636;2023-12-28T02:49:14;1.30;;;1.00;;
37203;SDS011;23098;48.054;10.636;2023-12-28T02:51:40;1.10;;;0.90;;
37203;SDS011;23098;48.054;10.636;2023-12-28T02:54:07;1.38;;;0.98;;
37203;SDS011;23098;48.054;10.636;2023-12-28T02:56:33;2.95;;;0.88;;
37203;SDS011;23098;48.054;10.636;2023-12-28T02:58:58;2.47;;;1.00;;
37203;SDS011;23098;48.054;10.636;2023-12-28T03:01:24;1.10;;;0.73;;
37203;SDS011;23098;48.054;10.636;2023-12-28T03:03:50;2.58;;;1.00;;
37203;SDS011;23098;48.054;10.636;2023-12-28T03:06:15;1.45;;;1.00;;
37203;SDS011;23098;48.054;10.636;2023-12-28T03:08:41;1.92;;;0.90;;
37203;SDS011;23098;48.054;10.636;2023-12-28T03:11:06;1.45;;;0.95;;
37203;SDS011;23098;48.054;10.636;2023-12-28T03:13:32;1.48;;;1.00;;
37203;SDS011;23098;48.054;10.636;2023-12-28T03:15:57;1.50;;;1.00;;
37203;SDS011;23098;48.054;10.636;2023-12-28T03:18:23;1.42;;;0.90;;
37203;SDS011;23098;48.054;10.636;2023-12-28T03:20:49;1.95;;;1.15;;
37203;SDS011;23098;48.054;10.636;2023-12-28T03:23:14;1.92;;;1.10;;
37203;SDS011;23098;48.054;10.636;2023-12-28T03:25:40;1.10;;;0.95;;
37203;SDS011;23098;48.054;10.636;2023-12-28T03:28:05;1.95;;;1.00;;
37203;SDS011;23098;48.054;10.636;2023-12-28T03:30:31;1.63;;;0.93;;
37203;SDS011;23098;48.054;10.636;2023-12-28T03:32:56;1.95;;;1.00;;
37203;SDS011;23098;48.054;10.636;2023-12-28T03:35:22;1.77;;;1.08;;
37203;SDS011;23098;48.054;10.636;2023-12-28T03:37:47;2.80;;;0.90;;
37203;SDS011;23098;48.054;10.636;2023-12-28T03:40:13;2.30;;;0.80;;
37203;SDS011;23098;48.054;10.636;2023-12-28T03:42:38;1.75;;;0.80;;
37203;SDS011;23098;48.054;10.636;2023-12-28T03:45:04;1.27;;;1.00;;
37203;SDS011;23098;48.054;10.636;2023-12-28T03:47:30;1.70;;;1.00;;
37203;SDS011;23098;48.054;10.636;2023-12-28T03:49:56;1.77;;;1.00;;
37203;SDS011;23098;48.054;10.636;2023-12-28T03:52:22;1.50;;;1.00;;
37203;SDS011;23098;48.054;10.636;2023-12-28T03:54:50;1.88;;;1.08;;
37203;SDS011;23098;48.054;10.636;2023-12-28T03:57:16;1.05;;;0.90;;
37203;SDS011;23098;48.054;10.636;2023-12-28T03:59:41;1.27;;;1.00;;
37203;SDS011;23098;48.054;10.636;2023-12-28T04:02:07;2.00;;;1.10;;
37203;SDS011;23098;48.054;10.636;2023-12-28T04:04:32;1.65;;;1.10;;
37203;SDS011;23098;48.054;10.636;2023-12-28T04:06:58;2.15;;;0.95;;
37203;SDS011;23098;48.054;10.636;2023-12-28T04:09:23;1.80;;;1.00;;
37203;SDS011;23098;48.054;10.636;2023-12-28T04:11:49;1.00;;;0.90;;
37203;SDS011;23098;48.054;10.636;2023-12-28T04:14:14;1.35;;;0.95;;
37203;SDS011;23098;48.054;10.636;2023-12-28T04:16:40;1.50;;;1.13;;
37203;SDS011;23098;48.054;10.636;2023-12-28T04:19:05;2.67;;;1.00;;
37203;SDS011;23098;48.054;10.636;2023-12-28T04:21:30;2.40;;;1.00;;
37203;SDS011;23098;48.054;10.636;2023-12-28T04:23:56;1.95;;;1.00;;
37203;SDS011;23098;48.054;10.636;2023-12-28T04:26:22;1.58;;;1.15;;
37203;SDS011;23098;48.054;10.636;2023-12-28T04:28:47;1.45;;;0.90;;
37203;SDS011;23098;48.054;10.636;2023-12-28T04:31:13;1.65;;;1.02;;
37203;SDS011;23098;48.054;10.636;2023-12-28T04:33:39;1.30;;;0.80;;
37203;SDS011;23098;48.054;10.636;2023-12-28T04:36:04;1.60;;;1.00;;
37203;SDS011;23098;48.054;10.636;2023-12-28T04:38:30;1.67;;;0.90;;
37203;SDS011;23098;48.054;10.636;2023-12-28T04:40:57;2.78;;;1.25;;
37203;SDS011;23098;48.054;10.636;2023-12-28T04:43:23;2.30;;;0.98;;
37203;SDS011;23098;48.054;10.636;2023-12-28T04:45:51;1.60;;;1.02;;
37203;SDS011;23098;48.054;10.636;2023-12-28T04:48:17;1.67;;;1.20;;
37203;SDS011;23098;48.054;10.636;2023-12-28T04:50:48;0.90;;;0.65;;
37203;SDS011;23098;48.054;10.636;2023-12-28T04:53:14;1.50;;;1.08;;
37203;SDS011;23098;48.054;10.636;2023-12-28T04:55:40;1.42;;;0.95;;
37203;SDS011;23098;48.054;10.636;2023-12-28T04:58:05;1.17;;;0.80;;
37203;SDS011;23098;48.054;10.636;2023-12-28T05:00:31;1.10;;;0.80;;
37203;SDS011;23098;48.054;10.636;2023-12-28T05:02:56;4.82;;;1.00;;
37203;SDS011;23098;48.054;10.636;2023-12-28T05:05:22;1.35;;;0.90;;
37203;SDS011;23098;48.054;10.636;2023-12-28T05:07:47;2.13;;;1.00;;
37203;SDS011;23098;48.054;10.636;2023-12-28T05:10:13;1.58;;;0.98;;
37203;SDS011;23098;48.054;10.636;2023-12-28T05:12:38;1.40;;;1.02;;
37203;SDS011;23098;48.054;10.636;2023-12-28T05:15:04;2.30;;;1.20;;
37203;SDS011;23098;48.054;10.636;2023-12-28T05:17:30;2.72;;;1.20;;
37203;SDS011;23098;48.054;10.636;2023-12-28T05:19:56;2.10;;;0.98;;
37203;SDS011;23098;48.054;10.636;2023-12-28T05:22:21;1.50;;;0.80;;
37203;SDS011;23098;48.054;10.636;2023-12-28T05:24:47;1.98;;;1.02;;
37203;SDS011;23098;48.054;10.636;2023-12-28T05:27:12;1.23;;;0.90;;
37203;SDS011;23098;48.054;10.636;2023-12-28T05:29:38;1.70;;;0.90;;
37203;SDS011;23098;48.054;10.636;2023-12-28T05:32:04;1.50;;;1.10;;
37203;SDS011;23098;48.054;10.636;2023-12-28T05:34:30;1.20;;;0.80;;
37203;SDS011;23098;48.054;10.636;2023-12-28T05:36:55;2.08;;;1.20;;
37203;SDS011;23098;48.054;10.636;2023-12-28T05:39:21;1.50;;;1.00;;
37203;SDS011;23098;48.054;10.636;2023-12-28T05:41:47;1.80;;;1.00;;
37203;SDS011;23098;48.054;10.636;2023-12-28T05:44:12;1.65;;;1.15;;
37203;SDS011;23098;48.054;10.636;2023-12-28T05:46:39;1.85;;;1.10;;
37203;SDS011;23098;48.054;10.636;2023-12-28T05:49:04;1.23;;;0.90;;
37203;SDS011;23098;48.054;10.636;2023-12-28T05:51:31;1.85;;;1.13;;
37203;SDS011;23098;48.054;10.636;2023-12-28T05:54:05;2.63;;;0.75;;
37203;SDS011;23098;48.054;10.636;2023-12-28T05:56:31;1.38;;;1.00;;
37203;SDS011;23098;48.054;10.636;2023-12-28T05:58:56;2.03;;;1.10;;
37203;SDS011;23098;48.054;10.636;2023-12-28T06:01:22;1.55;;;1.00;;
37203;SDS011;23098;48.054;10.636;2023-12-28T06:03:47;2.28;;;1.23;;
37203;SDS011;23098;48.054;10.636;2023-12-28T06:06:15;1.52;;;0.98;;
37203;SDS011;23098;48.054;10.636;2023-12-28T06:08:41;1.40;;;0.80;;
37203;SDS011;23098;48.054;10.636;2023-12-28T06:11:06;2.25;;;1.17;;
37203;SDS011;23098;48.054;10.636;2023-12-28T06:13:31;1.40;;;1.10;;
37203;SDS011;23098;48.054;10.636;2023-12-28T06:15:57;1.25;;;0.85;;
37203;SDS011;23098;48.054;10.636;2023-12-28T06:18:22;3.92;;;1.30;;
37203;SDS011;23098;48.054;10.636;2023-12-28T06:20:48;1.77;;;1.00;;
37203;SDS011;23098;48.054;10.636;2023-12-28T06:23:13;1.52;;;1.02;;
37203;SDS011;23098;48.054;10.636;2023-12-28T06:25:39;1.73;;;0.90;;
37203;SDS011;23098;48.054;10.636;2023-12-28T06:28:05;1.30;;;1.10;;
37203;SDS011;23098;48.054;10.636;2023-12-28T06:30:31;2.63;;;1.10;;
37203;SDS011;23098;48.054;10.636;2023-12-28T06:32:56;2.50;;;0.88;;
37203;SDS011;23098;48.054;10.636;2023-12-28T06:35:22;1.15;;;1.00;;
37203;SDS011;23098;48.054;10.636;2023-12-28T06:37:47;1.42;;;0.90;;
37203;SDS011;23098;48.054;10.636;2023-12-28T06:40:13;2.95;;;1.15;;
37203;SDS011;23098;48.054;10.636;2023-12-28T06:42:38;1.02;;;0.90;;
37203;SDS011;23098;48.054;10.636;2023-12-28T06:45:04;1.98;;;1.10;;
37203;SDS011;23098;48.054;10.636;2023-12-28T06:47:30;5.75;;;1.05;;
37203;SDS011;23098;48.054;10.636;2023-12-28T06:49:56;1.75;;;1.00;;
37203;SDS011;23098;48.054;10.636;2023-12-28T06:52:21;2.67;;;1.38;;
37203;SDS011;23098;48.054;10.636;2023-12-28T06:54:47;1.52;;;0.95;;
37203;SDS011;23098;48.054;10.636;2023-12-28T06:57:15;2.20;;;1.00;;
37203;SDS011;23098;48.054;10.636;2023-12-28T06:59:40;1.73;;;0.90;;
37203;SDS011;23098;48.054;10.636;2023-12-28T07:02:06;1.02;;;0.88;;
37203;SDS011;23098;48.054;10.636;2023-12-28T07:04:31;1.90;;;0.80;;
37203;SDS011;23098;48.054;10.636;2023-12-28T07:06:58;2.03;;;1.20;;
37203;SDS011;23098;48.054;10.636;2023-12-28T07:09:23;1.50;;;1.00;;
37203;SDS011;23098;48.054;10.636;2023-12-28T07:11:49;1.90;;;0.98;;
37203;SDS011;23098;48.054;10.636;2023-12-28T07:14:14;1.92;;;1.20;;
37203;SDS011;23098;48.054;10.636;2023-12-28T07:16:40;2.35;;;1.02;;
37203;SDS011;23098;48.054;10.636;2023-12-28T07:19:05;1.52;;;1.05;;
37203;SDS011;23098;48.054;10.636;2023-12-28T07:21:31;2.15;;;1.15;;
37203;SDS011;23098;48.054;10.636;2023-12-28T07:23:56;3.00;;;1.00;;
37203;SDS011;23098;48.054;10.636;2023-12-28T07:26:22;1.00;;;0.85;;
37203;SDS011;23098;48.054;10.636;2023-12-28T07:28:47;2.30;;;1.13;;
37203;SDS011;23098;48.054;10.636;2023-12-28T07:31:26;3.33;;;1.10;;
37203;SDS011;23098;48.054;10.636;2023-12-28T07:33:52;1.60;;;1.00;;
37203;SDS011;23098;48.054;10.636;2023-12-28T07:36:18;3.55;;;1.20;;
37203;SDS011;23098;48.054;10.636;2023-12-28T07:38:44;3.08;;;1.10;;
37203;SDS011;23098;48.054;10.636;2023-12-28T07:41:10;1.25;;;0.90;;
37203;SDS011;23098;48.054;10.636;2023-12-28T07:43:35;1.10;;;0.93;;
37203;SDS011;23098;48.054;10.636;2023-12-28T07:46:01;1.15;;;0.85;;
37203;SDS011;23098;48.054;10.636;2023-12-28T07:48:27;2.97;;;1.02;;
37203;SDS011;23098;48.054;10.636;2023-12-28T07:50:55;3.80;;;1.05;;
37203;SDS011;23098;48.054;10.636;2023-12-28T07:53:20;1.77;;;1.20;;
37203;SDS011;23098;48.054;10.636;2023-12-28T07:55:46;1.80;;;1.15;;
37203;SDS011;23098;48.054;10.636;2023-12-28T07:58:12;1.67;;;1.08;;
37203;SDS011;23098;48.054;10.636;2023-12-28T08:00:37;1.30;;;1.00;;
37203;SDS011;23098;48.054;10.636;2023-12-28T08:03:03;2.33;;;1.20;;
37203;SDS011;23098;48.054;10.636;2023-12-28T08:05:29;1.83;;;1.05;;
37203;SDS011;23098;48.054;10.636;2023-12-28T08:07:54;3.13;;;1.20;;
37203;SDS011;23098;48.054;10.636;2023-12-28T08:10:20;3.13;;;1.30;;
37203;SDS011;23098;48.054;10.636;2023-12-28T08:12:45;1.50;;;0.88;;
37203;SDS011;23098;48.054;10.636;2023-12-28T08:15:11;2.22;;;1.10;;
37203;SDS011;23098;48.054;10.636;2023-12-28T08:17:36;4.10;;;1.25;;
37203;SDS011;23098;48.054;10.636;2023-12-28T08:20:02;1.85;;;1.10;;
37203;SDS011;23098;48.054;10.636;2023-12-28T08:22:27;2.20;;;1.20;;
37203;SDS011;23098;48.054;10.636;2023-12-28T08:24:53;2.50;;;1.30;;
37203;SDS011;23098;48.054;10.636;2023-12-28T08:27:18;2.33;;;1.27;;
37203;SDS011;23098;48.054;10.636;2023-12-28T08:29:44;1.73;;;1.20;;
37203;SDS011;23098;48.054;10.636;2023-12-28T08:32:10;1.50;;;1.00;;
37203;SDS011;23098;48.054;10.636;2023-12-28T08:34:36;1.60;;;1.13;;
37203;SDS011;23098;48.054;10.636;2023-12-28T08:37:02;2.35;;;1.10;;
37203;SDS011;23098;48.054;10.636;2023-12-28T08:39:28;2.30;;;1.10;;
37203;SDS011;23098;48.054;10.636;2023-12-28T08:41:53;1.70;;;1.10;;
37203;SDS011;23098;48.054;10.636;2023-12-28T08:44:20;3.55;;;1.10;;
37203;SDS011;23098;48.054;10.636;2023-12-28T08:46:45;1.30;;;0.90;;
37203;SDS011;23098;48.054;10.636;2023-12-28T08:49:11;2.20;;;1.20;;
37203;SDS011;23098;48.054;10.636;2023-12-28T08:51:36;5.10;;;1.23;;
37203;SDS011;23098;48.054;10.636;2023-12-28T08:54:02;1.90;;;1.25;;
37203;SDS011;23098;48.054;10.636;2023-12-28T08:56:27;1.77;;;1.10;;
37203;SDS011;23098;48.054;10.636;2023-12-28T08:58:53;2.00;;;0.90;;
37203;SDS011;23098;48.054;10.636;2023-12-28T09:01:19;1.80;;;1.00;;
37203;SDS011;23098;48.054;10.636;2023-12-28T09:03:50;1.45;;;0.75;;
37203;SDS011;23098;48.054;10.636;2023-12-28T09:06:16;2.67;;;1.10;;
37203;SDS011;23098;48.054;10.636;2023-12-28T09:08:42;1.33;;;0.73;;
37203;SDS011;23098;48.054;10.636;2023-12-28T09:11:09;1.75;;;0.93;;
37203;SDS011;23098;48.054;10.636;2023-12-28T09:13:36;1.00;;;0.90;;
37203;SDS011;23098;48.054;10.636;2023-12-28T09:16:03;1.30;;;0.98;;
37203;SDS011;23098;48.054;10.636;2023-12-28T09:18:28;4.90;;;1.30;;
37203;SDS011;23098;48.054;10.636;2023-12-28T09:20:55;1.70;;;1.00;;
37203;SDS011;23098;48.054;10.636;2023-12-28T09:23:20;3.00;;;1.17;;
37203;SDS011;23098;48.054;10.636;2023-12-28T09:25:46;2.00;;;1.13;;
37203;SDS011;23098;48.054;10.636;2023-12-28T09:28:11;2.65;;;1.23;;
37203;SDS011;23098;48.054;10.636;2023-12-28T09:30:38;2.00;;;1.50;;
37203;SDS011;23098;48.054;10.636;2023-12-28T09:33:03;1.92;;;1.30;;
37203;SDS011;23098;48.054;10.636;2023-12-28T09:35:29;2.80;;;1.55;;
37203;SDS011;23098;48.054;10.636;2023-12-28T09:37:54;2.60;;;1.58;;
37203;SDS011;23098;48.054;10.636;2023-12-28T09:40:21;2.47;;;1.52;;
37203;SDS011;23098;48.054;10.636;2023-12-28T09:42:48;2.53;;;1.40;;
37203;SDS011;23098;48.054;10.636;2023-12-28T09:45:16;4.38;;;1.60;;
37203;SDS011;23098;48.054;10.636;2023-12-28T09:47:42;1.92;;;1.30;;
37203;SDS011;23098;48.054;10.636;2023-12-28T09:50:09;3.78;;;1.60;;
37203;SDS011;23098;48.054;10.636;2023-12-28T09:52:35;3.33;;;1.73;;
37203;SDS011;23098;48.054;10.636;2023-12-28T09:55:01;3.75;;;1.17;;
37203;SDS011;23098;48.054;10.636;2023-12-28T09:57:27;1.20;;;0.93;;
37203;SDS011;23098;48.054;10.636;2023-12-28T09:59:53;1.15;;;0.70;;
37203;SDS011;23098;48.054;10.636;2023-12-28T10:02:19;2.28;;;1.08;;
37203;SDS011;23098;48.054;10.636;2023-12-28T10:04:45;1.65;;;0.80;;
37203;SDS011;23098;48.054;10.636;2023-12-28T10:07:10;0.70;;;0.60;;
37203;SDS011;23098;48.054;10.636;2023-12-28T10:09:36;0.80;;;0.75;;
37203;SDS011;23098;48.054;10.636;2023-12-28T10:12:01;0.85;;;0.75;;
37203;SDS011;23098;48.054;10.636;2023-12-28T10:14:28;1.35;;;0.90;;
37203;SDS011;23098;48.054;10.636;2023-12-28T10:16:54;3.67;;;0.80;;
37203;SDS011;23098;48.054;10.636;2023-12-28T10:19:23;1.52;;;0.90;;
37203;SDS011;23098;48.054;10.636;2023-12-28T10:21:48;1.88;;;0.90;;
37203;SDS011;23098;48.054;10.636;2023-12-28T10:24:14;2.47;;;1.08;;
37203;SDS011;23098;48.054;10.636;2023-12-28T10:26:39;2.75;;;1.02;;
37203;SDS011;23098;48.054;10.636;2023-12-28T10:29:05;1.75;;;1.00;;
37203;SDS011;23098;48.054;10.636;2023-12-28T10:31:31;1.52;;;1.00;;
37203;SDS011;23098;48.054;10.636;2023-12-28T10:33:59;2.03;;;1.20;;
37203;SDS011;23098;48.054;10.636;2023-12-28T10:36:27;3.53;;;1.40;;
37203;SDS011;23098;48.054;10.636;2023-12-28T10:38:53;3.33;;;1.50;;
37203;SDS011;23098;48.054;10.636;2023-12-28T10:41:20;1.63;;;1.00;;
37203;SDS011;23098;48.054;10.636;2023-12-28T10:46:26;2.03;;;1.08;;
37203;SDS011;23098;48.054;10.636;2023-12-28T10:48:53;1.67;;;1.20;;
37203;SDS011;23098;48.054;10.636;2023-12-28T10:54:08;2.42;;;0.80;;
37203;SDS011;23098;48.054;10.636;2023-12-28T10:56:46;1.23;;;0.82;;
37203;SDS011;23098;48.054;10.636;2023-12-28T11:01:50;1.52;;;1.02;;
37203;SDS011;23098;48.054;10.636;2023-12-28T11:07:01;1.92;;;1.10;;
37203;SDS011;23098;48.054;10.636;2023-12-28T11:09:29;2.72;;;1.00;;
37203;SDS011;23098;48.054;10.636;2023-12-28T11:11:57;1.85;;;0.88;;
37203;SDS011;23098;48.054;10.636;2023-12-28T11:14:26;3.13;;;1.05;;
37203;SDS011;23098;48.054;10.636;2023-12-28T11:16:53;1.85;;;1.02;;
37203;SDS011;23098;48.054;10.636;2023-12-28T11:19:20;1.77;;;1.00;;
37203;SDS011;23098;48.054;10.636;2023-12-28T11:21:48;1.05;;;0.70;;
37203;SDS011;23098;48.054;10.636;2023-12-28T11:24:14;0.77;;;0.60;;
37203;SDS011;23098;48.054;10.636;2023-12-28T11:26:41;1.42;;;0.77;;
37203;SDS011;23098;48.054;10.636;2023-12-28T11:29:07;1.02;;;0.82;;
37203;SDS011;23098;48.054;10.636;2023-12-28T11:31:33;1.17;;;0.82;;
37203;SDS011;23098;48.054;10.636;2023-12-28T11:33:59;2.05;;;1.02;;
37203;SDS011;23098;48.054;10.636;2023-12-28T11:36:26;1.67;;;1.00;;
37203;SDS011;23098;48.054;10.636;2023-12-28T11:39:20;1.27;;;0.70;;
37203;SDS011;23098;48.054;10.636;2023-12-28T11:42:05;1.67;;;0.70;;
37203;SDS011;23098;48.054;10.636;2023-12-28T11:44:38;2.08;;;0.95;;
37203;SDS011;23098;48.054;10.636;2023-12-28T11:47:13;2.38;;;1.10;;
37203;SDS011;23098;48.054;10.636;2023-12-28T11:49:40;1.55;;;0.90;;
37203;SDS011;23098;48.054;10.636;2023-12-28T11:52:06;0.82;;;0.80;;
37203;SDS011;23098;48.054;10.636;2023-12-28T11:54:32;1.00;;;0.77;;
37203;SDS011;23098;48.054;10.636;2023-12-28T11:56:57;1.15;;;0.90;;
37203;SDS011;23098;48.054;10.636;2023-12-28T11:59:23;2.15;;;0.98;;
37203;SDS011;23098;48.054;10.636;2023-12-28T12:01:52;0.98;;;0.70;;
37203;SDS011;23098;48.054;10.636;2023-12-28T12:04:21;1.00;;;0.90;;
37203;SDS011;23098;48.054;10.636;2023-12-28T12:06:47;0.98;;;0.70;;
37203;SDS011;23098;48.054;10.636;2023-12-28T12:09:13;1.55;;;1.00;;
37203;SDS011;23098;48.054;10.636;2023-12-28T12:11:39;2.35;;;0.90;;
37203;SDS011;23098;48.054;10.636;2023-12-28T12:14:11;1.90;;;0.73;;
37203;SDS011;23098;48.054;10.636;2023-12-28T12:16:37;1.45;;;0.90;;
37203;SDS011;23098;48.054;10.636;2023-12-28T12:19:04;2.17;;;1.00;;
37203;SDS011;23098;48.054;10.636;2023-12-28T12:21:29;1.50;;;1.00;;
37203;SDS011;23098;48.054;10.636;2023-12-28T12:23:55;1.67;;;0.90;;
37203;SDS011;23098;48.054;10.636;2023-12-28T12:26:20;1.98;;;1.13;;
37203;SDS011;23098;48.054;10.636;2023-12-28T12:28:47;1.00;;;0.80;;
37203;SDS011;23098;48.054;10.636;2023-12-28T12:31:13;1.15;;;0.80;;
37203;SDS011;23098;48.054;10.636;2023-12-28T12:33:39;1.17;;;0.80;;
37203;SDS011;23098;48.054;10.636;2023-12-28T12:36:07;1.10;;;0.90;;
37203;SDS011;23098;48.054;10.636;2023-12-28T12:38:33;2.42;;;0.90;;
37203;SDS011;23098;48.054;10.636;2023-12-28T12:40:59;2.15;;;0.95;;
37203;SDS011;23098;48.054;10.636;2023-12-28T12:43:24;1.35;;;0.98;;
37203;SDS011;23098;48.054;10.636;2023-12-28T12:45:51;1.50;;;0.98;;
37203;SDS011;23098;48.054;10.636;2023-12-28T12:48:17;1.98;;;1.00;;
37203;SDS011;23098;48.054;10.636;2023-12-28T12:50:43;0.82;;;0.77;;
37203;SDS011;23098;48.054;10.636;2023-12-28T12:53:09;2.47;;;1.10;;
37203;SDS011;23098;48.054;10.636;2023-12-28T12:55:35;1.00;;;0.80;;
37203;SDS011;23098;48.054;10.636;2023-12-28T12:58:04;1.60;;;1.00;;
37203;SDS011;23098;48.054;10.636;2023-12-28T13:00:30;2.83;;;1.00;;
37203;SDS011;23098;48.054;10.636;2023-12-28T13:02:58;0.80;;;0.70;;
37203;SDS011;23098;48.054;10.636;2023-12-28T13:05:24;2.88;;;1.10;;
37203;SDS011;23098;48.054;10.636;2023-12-28T13:07:50;1.70;;;1.10;;
37203;SDS011;23098;48.054;10.636;2023-12-28T13:10:16;0.90;;;0.80;;
37203;SDS011;23098;48.054;10.636;2023-12-28T13:12:42;1.23;;;1.00;;
37203;SDS011;23098;48.054;10.636;2023-12-28T13:15:08;1.50;;;1.00;;
37203;SDS011;23098;48.054;10.636;2023-12-28T13:17:35;4.15;;;1.15;;
37203;SDS011;23098;48.054;10.636;2023-12-28T13:20:01;2.63;;;0.90;;
37203;SDS011;23098;48.054;10.636;2023-12-28T13:22:28;2.28;;;0.93;;
37203;SDS011;23098;48.054;10.636;2023-12-28T13:24:54;1.45;;;1.00;;
37203;SDS011;23098;48.054;10.636;2023-12-28T13:27:19;1.23;;;0.90;;
37203;SDS011;23098;48.054;10.636;2023-12-28T13:29:45;3.38;;;1.20;;
37203;SDS011;23098;48.054;10.636;2023-12-28T13:32:10;2.40;;;0.93;;
37203;SDS011;23098;48.054;10.636;2023-12-28T13:34:36;1.73;;;1.00;;
37203;SDS011;23098;48.054;10.636;2023-12-28T13:37:01;5.35;;;1.23;;
37203;SDS011;23098;48.054;10.636;2023-12-28T13:39:28;2.63;;;0.98;;
37203;SDS011;23098;48.054;10.636;2023-12-28T13:41:53;1.65;;;0.90;;
37203;SDS011;23098;48.054;10.636;2023-12-28T13:44:20;2.47;;;1.15;;
37203;SDS011;23098;48.054;10.636;2023-12-28T13:46:45;1.50;;;0.80;;
37203;SDS011;23098;48.054;10.636;2023-12-28T13:49:11;2.25;;;1.08;;
37203;SDS011;23098;48.054;10.636;2023-12-28T13:51:36;1.83;;;1.05;;
37203;SDS011;23098;48.054;10.636;2023-12-28T13:54:02;3.67;;;1.05;;
37203;SDS011;23098;48.054;10.636;2023-12-28T13:56:27;2.25;;;0.93;;
37203;SDS011;23098;48.054;10.636;2023-12-28T13:58:53;1.67;;;0.88;;
37203;SDS011;23098;48.054;10.636;2023-12-28T14:01:19;2.13;;;1.17;;
37203;SDS011;23098;48.054;10.636;2023-12-28T14:03:45;1.98;;;1.33;;
37203;SDS011;23098;48.054;10.636;2023-12-28T14:06:13;2.42;;;0.93;;
37203;SDS011;23098;48.054;10.636;2023-12-28T14:08:38;2.20;;;1.00;;
37203;SDS011;23098;48.054;10.636;2023-12-28T14:11:04;2.60;;;1.40;;
37203;SDS011;23098;48.054;10.636;2023-12-28T14:13:31;1.75;;;1.10;;
37203;SDS011;23098;48.054;10.636;2023-12-28T14:15:56;1.33;;;1.00;;
37203;SDS011;23098;48.054;10.636;2023-12-28T14:18:22;3.47;;;1.10;;
37203;SDS011;23098;48.054;10.636;2023-12-28T14:20:47;2.25;;;0.95;;
37203;SDS011;23098;48.054;10.636;2023-12-28T14:23:13;1.70;;;1.10;;
37203;SDS011;23098;48.054;10.636;2023-12-28T14:25:39;2.05;;;1.05;;
37203;SDS011;23098;48.054;10.636;2023-12-28T14:28:05;1.95;;;1.08;;
37203;SDS011;23098;48.054;10.636;2023-12-28T14:30:31;2.67;;;1.13;;
37203;SDS011;23098;48.054;10.636;2023-12-28T14:32:56;2.20;;;1.33;;
37203;SDS011;23098;48.054;10.636;2023-12-28T14:35:22;2.08;;;1.10;;
37203;SDS011;23098;48.054;10.636;2023-12-28T14:37:48;1.92;;;1.00;;
37203;SDS011;23098;48.054;10.636;2023-12-28T14:40:14;3.13;;;1.00;;
37203;SDS011;23098;48.054;10.636;2023-12-28T14:42:39;1.60;;;1.20;;